sensor_id;sensor_type;location;lat;lon;timestamp;pressure;altitude;pressure_sealevel;temperature;humidity
73842;BME280;62184;52.006;5.924;2024-02-23T00:01:41;97916.22;;;10.78;56.55
73842;BME280;62184;52.006;5.924;2024-02-23T00:04:08;97917.56;;;10.84;56.96
73842;BME280;62184;52.006;5.924;2024-02-23T00:06:34;97925.59;;;10.84;56.51
73842;BME280;62184;52.006;5.924;2024-02-23T00:09:01;97929.50;;;10.91;56.88
73842;BME280;62184;52.006;5.924;2024-02-23T00:11:27;97921.75;;;10.88;56.31
73842;BME280;62184;52.006;5.924;2024-02-23T00:13:56;97889.91;;;10.72;55.48
73842;BME280;62184;52.006;5.924;2024-02-23T00:16:23;97904.78;;;10.76;55.33
73842;BME280;62184;52.006;5.924;2024-02-23T00:18:49;97925.47;;;10.85;55.73
73842;BME280;62184;52.006;5.924;2024-02-23T00:21:15;97923.66;;;10.86;56.02
73842;BME280;62184;52.006;5.924;2024-02-23T00:23:42;97935.72;;;10.91;56.47
73842;BME280;62184;52.006;5.924;2024-02-23T00:26:08;97944.88;;;11.00;56.95
73842;BME280;62184;52.006;5.924;2024-02-23T00:28:34;97934.19;;;11.00;57.32
73842;BME280;62184;52.006;5.924;2024-02-23T00:31:04;97941.25;;;11.01;57.50
73842;BME280;62184;52.006;5.924;2024-02-23T00:33:30;97952.78;;;11.01;57.68
73842;BME280;62184;52.006;5.924;2024-02-23T00:35:56;97956.91;;;11.05;57.56
73842;BME280;62184;52.006;5.924;2024-02-23T00:38:23;97955.00;;;11.07;57.40
73842;BME280;62184;52.006;5.924;2024-02-23T00:40:49;97961.28;;;11.06;57.68
73842;BME280;62184;52.006;5.924;2024-02-23T00:43:15;97961.19;;;11.08;57.33
73842;BME280;62184;52.006;5.924;2024-02-23T00:45:42;97964.41;;;11.13;57.74
73842;BME280;62184;52.006;5.924;2024-02-23T00:48:11;97977.91;;;11.23;57.75
73842;BME280;62184;52.006;5.924;2024-02-23T00:50:37;97976.44;;;11.19;57.59
73842;BME280;62184;52.006;5.924;2024-02-23T00:53:04;97988.50;;;11.24;57.88
73842;BME280;62184;52.006;5.924;2024-02-23T00:55:30;98010.22;;;11.20;57.38
73842;BME280;62184;52.006;5.924;2024-02-23T00:57:56;98000.56;;;11.30;57.55
73842;BME280;62184;52.006;5.924;2024-02-23T01:00:23;98018.84;;;11.23;56.18
73842;BME280;62184;52.006;5.924;2024-02-23T01:02:49;98005.22;;;11.02;55.03
73842;BME280;62184;52.006;5.924;2024-02-23T01:05:18;98005.25;;;10.90;55.69
73842;BME280;62184;52.006;5.924;2024-02-23T01:07:45;98025.09;;;10.73;55.34
73842;BME280;62184;52.006;5.924;2024-02-23T01:10:11;98012.84;;;10.70;56.19
73842;BME280;62184;52.006;5.924;2024-02-23T01:12:38;98009.63;;;10.53;55.71
73842;BME280;62184;52.006;5.924;2024-02-23T01:15:05;98011.34;;;10.41;55.73
73842;BME280;62184;52.006;5.924;2024-02-23T01:17:32;98023.81;;;10.40;56.71
73842;BME280;62184;52.006;5.924;2024-02-23T01:19:58;97998.22;;;10.38;56.80
73842;BME280;62184;52.006;5.924;2024-02-23T01:22:27;98004.94;;;10.44;58.07
73842;BME280;62184;52.006;5.924;2024-02-23T01:24:53;98039.75;;;10.55;58.23
73842;BME280;62184;52.006;5.924;2024-02-23T01:27:20;98031.81;;;10.66;58.39
73842;BME280;62184;52.006;5.924;2024-02-23T01:29:46;98032.72;;;10.79;58.65
73842;BME280;62184;52.006;5.924;2024-02-23T01:32:12;98034.41;;;10.93;58.81
73842;BME280;62184;52.006;5.924;2024-02-23T01:34:39;98037.28;;;11.02;58.74
73842;BME280;62184;52.006;5.924;2024-02-23T01:37:05;98041.13;;;10.98;58.61
73842;BME280;62184;52.006;5.924;2024-02-23T01:39:34;98043.25;;;11.06;58.50
73842;BME280;62184;52.006;5.924;2024-02-23T01:42:01;98043.69;;;11.12;58.39
73842;BME280;62184;52.006;5.924;2024-02-23T01:44:27;98042.38;;;11.18;58.38
73842;BME280;62184;52.006;5.924;2024-02-23T01:46:53;98049.72;;;11.27;58.55
73842;BME280;62184;52.006;5.924;2024-02-23T01:49:20;98043.81;;;11.35;58.37
73842;BME280;62184;52.006;5.924;2024-02-23T01:51:47;98055.81;;;11.29;57.87
73842;BME280;62184;52.006;5.924;2024-02-23T01:54:16;98050.78;;;11.25;57.71
73842;BME280;62184;52.006;5.924;2024-02-23T01:56:45;98060.00;;;11.21;57.77
73842;BME280;62184;52.006;5.924;2024-02-23T01:59:12;98055.28;;;11.24;58.02
73842;BME280;62184;52.006;5.924;2024-02-23T02:01:39;98071.75;;;11.18;57.78
73842;BME280;62184;52.006;5.924;2024-02-23T02:04:09;98063.63;;;11.20;57.68
73842;BME280;62184;52.006;5.924;2024-02-23T02:06:35;98068.88;;;11.21;57.71
73842;BME280;62184;52.006;5.924;2024-02-23T02:09:02;98071.66;;;11.20;57.59
73842;BME280;62184;52.006;5.924;2024-02-23T02:11:29;98076.16;;;11.19;57.68
73842;BME280;62184;52.006;5.924;2024-02-23T02:13:58;98085.22;;;11.16;57.43
73842;BME280;62184;52.006;5.924;2024-02-23T02:16:25;98072.84;;;11.03;57.27
73842;BME280;62184;52.006;5.924;2024-02-23T02:18:51;98080.31;;;11.10;57.74
73842;BME280;62184;52.006;5.924;2024-02-23T02:21:17;98074.75;;;11.13;57.39
73842;BME280;62184;52.006;5.924;2024-02-23T02:23:44;98085.34;;;11.02;57.08
73842;BME280;62184;52.006;5.924;2024-02-23T02:26:10;98088.47;;;10.96;57.22
73842;BME280;62184;52.006;5.924;2024-02-23T02:28:37;98088.66;;;10.93;56.76
73842;BME280;62184;52.006;5.924;2024-02-23T02:31:06;98088.97;;;10.89;56.56
73842;BME280;62184;52.006;5.924;2024-02-23T02:33:32;98089.84;;;10.89;57.17
73842;BME280;62184;52.006;5.924;2024-02-23T02:35:58;98093.78;;;10.84;56.75
73842;BME280;62184;52.006;5.924;2024-02-23T02:38:25;98097.22;;;10.86;57.19
73842;BME280;62184;52.006;5.924;2024-02-23T02:40:51;98094.84;;;10.81;57.00
73842;BME280;62184;52.006;5.924;2024-02-23T02:43:18;98107.25;;;10.82;56.99
73842;BME280;62184;52.006;5.924;2024-02-23T02:45:44;98093.03;;;10.82;56.99
73842;BME280;62184;52.006;5.924;2024-02-23T02:48:13;98103.41;;;10.86;56.95
73842;BME280;62184;52.006;5.924;2024-02-23T02:50:39;98102.34;;;10.76;56.77
73842;BME280;62184;52.006;5.924;2024-02-23T02:53:06;98103.09;;;10.78;57.10
73842;BME280;62184;52.006;5.924;2024-02-23T02:55:32;98100.75;;;10.86;57.40
73842;BME280;62184;52.006;5.924;2024-02-23T02:57:59;98101.72;;;10.85;57.39
73842;BME280;62184;52.006;5.924;2024-02-23T03:00:25;98101.69;;;10.98;57.18
73842;BME280;62184;52.006;5.924;2024-02-23T03:02:51;98099.66;;;11.01;57.00
73842;BME280;62184;52.006;5.924;2024-02-23T03:05:21;98107.16;;;10.96;56.55
73842;BME280;62184;52.006;5.924;2024-02-23T03:07:47;98107.16;;;10.96;56.62
73842;BME280;62184;52.006;5.924;2024-02-23T03:10:14;98115.50;;;11.04;57.11
73842;BME280;62184;52.006;5.924;2024-02-23T03:12:40;98115.25;;;11.07;56.48
73842;BME280;62184;52.006;5.924;2024-02-23T03:15:07;98110.56;;;11.11;56.23
73842;BME280;62184;52.006;5.924;2024-02-23T03:17:34;98118.13;;;11.17;56.69
73842;BME280;62184;52.006;5.924;2024-02-23T03:20:01;98128.72;;;11.19;56.55
73842;BME280;62184;52.006;5.924;2024-02-23T03:22:30;98112.91;;;11.03;55.35
73842;BME280;62184;52.006;5.924;2024-02-23T03:24:56;98123.59;;;11.03;56.28
73842;BME280;62184;52.006;5.924;2024-02-23T03:27:28;98117.50;;;11.01;56.25
73842;BME280;62184;52.006;5.924;2024-02-23T03:29:55;98114.94;;;10.99;56.48
73842;BME280;62184;52.006;5.924;2024-02-23T03:32:21;98112.59;;;10.95;55.68
73842;BME280;62184;52.006;5.924;2024-02-23T03:34:47;98122.94;;;10.99;56.54
73842;BME280;62184;52.006;5.924;2024-02-23T03:37:14;98143.38;;;11.13;56.49
73842;BME280;62184;52.006;5.924;2024-02-23T03:39:43;98143.25;;;11.14;56.50
73842;BME280;62184;52.006;5.924;2024-02-23T03:42:09;98136.94;;;11.15;55.48
73842;BME280;62184;52.006;5.924;2024-02-23T03:44:35;98137.69;;;11.18;55.71
73842;BME280;62184;52.006;5.924;2024-02-23T03:47:02;98142.91;;;11.32;54.92
73842;BME280;62184;52.006;5.924;2024-02-23T03:49:28;98144.06;;;11.40;54.88
73842;BME280;62184;52.006;5.924;2024-02-23T03:51:55;98143.97;;;11.42;54.37
73842;BME280;62184;52.006;5.924;2024-02-23T03:54:21;98150.81;;;11.46;54.68
73842;BME280;62184;52.006;5.924;2024-02-23T03:56:50;98152.84;;;11.42;54.70
73842;BME280;62184;52.006;5.924;2024-02-23T03:59:16;98156.25;;;11.44;54.37
73842;BME280;62184;52.006;5.924;2024-02-23T04:01:43;98154.09;;;11.49;54.94
73842;BME280;62184;52.006;5.924;2024-02-23T04:04:09;98151.44;;;11.49;54.63
73842;BME280;62184;52.006;5.924;2024-02-23T04:06:36;98158.28;;;11.41;53.58
73842;BME280;62184;52.006;5.924;2024-02-23T04:09:02;98162.69;;;11.42;54.84
73842;BME280;62184;52.006;5.924;2024-02-23T04:11:29;98175.06;;;11.43;54.71
73842;BME280;62184;52.006;5.924;2024-02-23T04:13:58;98179.88;;;11.50;54.82
73842;BME280;62184;52.006;5.924;2024-02-23T04:16:24;98171.97;;;11.49;54.84
73842;BME280;62184;52.006;5.924;2024-02-23T04:18:51;98177.00;;;11.41;54.35
73842;BME280;62184;52.006;5.924;2024-02-23T04:21:18;98174.44;;;11.52;54.79
73842;BME280;62184;52.006;5.924;2024-02-23T04:23:45;98173.38;;;11.54;54.39
73842;BME280;62184;52.006;5.924;2024-02-23T04:26:12;98185.13;;;11.52;54.88
73842;BME280;62184;52.006;5.924;2024-02-23T04:28:39;98183.59;;;11.48;54.42
73842;BME280;62184;52.006;5.924;2024-02-23T04:31:08;98177.09;;;11.39;54.27
73842;BME280;62184;52.006;5.924;2024-02-23T04:33:35;98185.97;;;11.40;54.64
73842;BME280;62184;52.006;5.924;2024-02-23T04:36:02;98198.78;;;11.47;54.96
73842;BME280;62184;52.006;5.924;2024-02-23T04:38:29;98201.28;;;11.38;54.38
73842;BME280;62184;52.006;5.924;2024-02-23T04:40:56;98190.81;;;11.35;54.13
73842;BME280;62184;52.006;5.924;2024-02-23T04:43:23;98192.72;;;11.45;54.65
73842;BME280;62184;52.006;5.924;2024-02-23T04:45:50;98195.06;;;11.50;54.63
73842;BME280;62184;52.006;5.924;2024-02-23T04:48:19;98199.75;;;11.59;55.27
73842;BME280;62184;52.006;5.924;2024-02-23T04:50:45;98208.63;;;11.60;54.65
73842;BME280;62184;52.006;5.924;2024-02-23T04:53:12;98211.50;;;11.57;54.27
73842;BME280;62184;52.006;5.924;2024-02-23T04:55:38;98217.16;;;11.65;55.25
73842;BME280;62184;52.006;5.924;2024-02-23T04:58:06;98209.78;;;11.68;54.68
73842;BME280;62184;52.006;5.924;2024-02-23T05:00:32;98218.34;;;11.73;54.71
73842;BME280;62184;52.006;5.924;2024-02-23T05:02:59;98224.03;;;11.69;54.66
73842;BME280;62184;52.006;5.924;2024-02-23T05:05:28;98220.78;;;11.76;54.69
73842;BME280;62184;52.006;5.924;2024-02-23T05:07:54;98227.50;;;11.82;55.12
73842;BME280;62184;52.006;5.924;2024-02-23T05:10:20;98216.25;;;11.53;55.10
73842;BME280;62184;52.006;5.924;2024-02-23T05:12:47;98217.75;;;11.44;55.28
73842;BME280;62184;52.006;5.924;2024-02-23T05:15:13;98227.25;;;11.36;55.21
73842;BME280;62184;52.006;5.924;2024-02-23T05:17:40;98212.38;;;11.32;55.01
73842;BME280;62184;52.006;5.924;2024-02-23T05:20:07;98226.94;;;11.28;55.36
73842;BME280;62184;52.006;5.924;2024-02-23T05:22:38;98220.94;;;11.37;56.08
73842;BME280;62184;52.006;5.924;2024-02-23T05:25:05;98224.16;;;11.42;55.66
73842;BME280;62184;52.006;5.924;2024-02-23T05:27:32;98225.84;;;11.43;56.10
73842;BME280;62184;52.006;5.924;2024-02-23T05:29:59;98222.44;;;11.53;56.31
73842;BME280;62184;52.006;5.924;2024-02-23T05:32:25;98215.78;;;11.59;56.01
73842;BME280;62184;52.006;5.924;2024-02-23T05:34:52;98212.16;;;11.60;55.39
73842;BME280;62184;52.006;5.924;2024-02-23T05:37:18;98223.59;;;11.62;55.74
73842;BME280;62184;52.006;5.924;2024-02-23T05:39:48;98216.13;;;11.54;55.19
73842;BME280;62184;52.006;5.924;2024-02-23T05:42:14;98217.00;;;11.55;55.86
73842;BME280;62184;52.006;5.924;2024-02-23T05:44:43;98202.13;;;11.51;54.86
73842;BME280;62184;52.006;5.924;2024-02-23T05:47:09;98208.22;;;11.53;54.97
73842;BME280;62184;52.006;5.924;2024-02-23T05:49:36;98210.00;;;11.65;55.54
73842;BME280;62184;52.006;5.924;2024-02-23T05:52:03;98223.38;;;11.65;55.36
73842;BME280;62184;52.006;5.924;2024-02-23T05:54:29;98223.81;;;11.59;55.00
73842;BME280;62184;52.006;5.924;2024-02-23T05:56:58;98232.78;;;11.58;55.41
73842;BME280;62184;52.006;5.924;2024-02-23T05:59:25;98225.31;;;11.63;55.42
73842;BME280;62184;52.006;5.924;2024-02-23T06:01:51;98229.56;;;11.66;55.10
73842;BME280;62184;52.006;5.924;2024-02-23T06:04:18;98222.22;;;11.69;55.08
73842;BME280;62184;52.006;5.924;2024-02-23T06:06:44;98228.31;;;11.71;54.83
73842;BME280;62184;52.006;5.924;2024-02-23T06:09:10;98228.31;;;11.71;54.78
73842;BME280;62184;52.006;5.924;2024-02-23T06:11:37;98217.06;;;11.79;55.30
73842;BME280;62184;52.006;5.924;2024-02-23T06:14:06;98221.97;;;11.85;55.59
73842;BME280;62184;52.006;5.924;2024-02-23T06:16:32;98220.91;;;11.87;55.63
73842;BME280;62184;52.006;5.924;2024-02-23T06:18:59;98215.09;;;11.81;54.08
73842;BME280;62184;52.006;5.924;2024-02-23T06:21:25;98217.06;;;11.79;54.15
73842;BME280;62184;52.006;5.924;2024-02-23T06:23:52;98217.91;;;11.79;54.51
73842;BME280;62184;52.006;5.924;2024-02-23T06:26:19;98212.03;;;11.74;54.44
73842;BME280;62184;52.006;5.924;2024-02-23T06:28:45;98214.59;;;11.76;55.30
73842;BME280;62184;52.006;5.924;2024-02-23T06:31:14;98216.72;;;11.83;55.58
73842;BME280;62184;52.006;5.924;2024-02-23T06:33:41;98210.84;;;11.78;54.38
73842;BME280;62184;52.006;5.924;2024-02-23T06:36:07;98213.22;;;11.70;54.54
73842;BME280;62184;52.006;5.924;2024-02-23T06:38:35;98217.38;;;11.74;54.87
73842;BME280;62184;52.006;5.924;2024-02-23T06:41:01;98212.56;;;11.67;54.48
73842;BME280;62184;52.006;5.924;2024-02-23T06:43:28;98220.78;;;11.76;55.34
73842;BME280;62184;52.006;5.924;2024-02-23T06:45:54;98224.44;;;11.75;54.61
73842;BME280;62184;52.006;5.924;2024-02-23T06:48:24;98226.03;;;11.78;54.53
73842;BME280;62184;52.006;5.924;2024-02-23T06:50:50;98224.22;;;11.78;54.81
73842;BME280;62184;52.006;5.924;2024-02-23T06:53:16;98232.34;;;11.77;54.64
73842;BME280;62184;52.006;5.924;2024-02-23T06:55:43;98232.25;;;11.78;54.28
73842;BME280;62184;52.006;5.924;2024-02-23T06:58:09;98236.94;;;11.87;54.87
73842;BME280;62184;52.006;5.924;2024-02-23T07:00:36;98213.06;;;11.84;54.45
73842;BME280;62184;52.006;5.924;2024-02-23T07:03:03;98216.72;;;11.83;54.36
73842;BME280;62184;52.006;5.924;2024-02-23T07:05:32;98226.00;;;11.90;54.41
73842;BME280;62184;52.006;5.924;2024-02-23T07:07:58;98220.91;;;11.87;53.26
73842;BME280;62184;52.006;5.924;2024-02-23T07:10:25;98217.66;;;11.95;54.45
73842;BME280;62184;52.006;5.924;2024-02-23T07:12:51;98220.22;;;11.97;54.33
73842;BME280;62184;52.006;5.924;2024-02-23T07:15:18;98220.94;;;11.99;54.18
73842;BME280;62184;52.006;5.924;2024-02-23T07:17:45;98222.78;;;11.98;53.36
73842;BME280;62184;52.006;5.924;2024-02-23T07:20:11;98220.34;;;11.95;52.99
73842;BME280;62184;52.006;5.924;2024-02-23T07:22:43;98223.63;;;11.99;53.64
73842;BME280;62184;52.006;5.924;2024-02-23T07:25:10;98223.97;;;11.94;53.48
73842;BME280;62184;52.006;5.924;2024-02-23T07:27:36;98225.25;;;12.01;53.35
73842;BME280;62184;52.006;5.924;2024-02-23T07:30:04;98228.25;;;11.97;52.77
73842;BME280;62184;52.006;5.924;2024-02-23T07:32:31;98224.38;;;12.13;53.60
73842;BME280;62184;52.006;5.924;2024-02-23T07:34:57;98229.19;;;12.21;53.43
73842;BME280;62184;52.006;5.924;2024-02-23T07:37:26;98232.19;;;12.16;52.85
73842;BME280;62184;52.006;5.924;2024-02-23T07:39:55;98240.59;;;12.23;53.23
73842;BME280;62184;52.006;5.924;2024-02-23T07:42:21;98228.94;;;12.24;52.21
73842;BME280;62184;52.006;5.924;2024-02-23T07:44:48;98226.81;;;12.16;51.73
73842;BME280;62184;52.006;5.924;2024-02-23T07:47:14;98241.16;;;12.15;52.88
73842;BME280;62184;52.006;5.924;2024-02-23T07:49:41;98235.38;;;12.21;52.83
73842;BME280;62184;52.006;5.924;2024-02-23T07:52:07;98237.06;;;12.22;53.09
73842;BME280;62184;52.006;5.924;2024-02-23T07:54:33;98228.38;;;12.32;52.67
73842;BME280;62184;52.006;5.924;2024-02-23T07:57:03;98233.41;;;12.36;51.88
73842;BME280;62184;52.006;5.924;2024-02-23T07:59:29;98228.53;;;12.41;52.44
73842;BME280;62184;52.006;5.924;2024-02-23T08:01:56;98236.69;;;12.40;51.79
73842;BME280;62184;52.006;5.924;2024-02-23T08:04:22;98234.19;;;12.49;53.04
73842;BME280;62184;52.006;5.924;2024-02-23T08:06:49;98231.63;;;12.48;51.84
73842;BME280;62184;52.006;5.924;2024-02-23T08:09:15;98215.16;;;12.41;51.54
73842;BME280;62184;52.006;5.924;2024-02-23T08:11:41;98222.00;;;12.45;51.18
73842;BME280;62184;52.006;5.924;2024-02-23T08:14:10;98231.41;;;12.51;51.24
73842;BME280;62184;52.006;5.924;2024-02-23T08:16:37;98229.06;;;12.70;52.23
73842;BME280;62184;52.006;5.924;2024-02-23T08:19:03;98235.88;;;12.74;51.32
73842;BME280;62184;52.006;5.924;2024-02-23T08:21:30;98232.03;;;12.78;52.87
73842;BME280;62184;52.006;5.924;2024-02-23T08:23:56;98224.59;;;12.82;51.94
73842;BME280;62184;52.006;5.924;2024-02-23T08:26:23;98226.09;;;12.86;52.55
73842;BME280;62184;52.006;5.924;2024-02-23T08:28:49;98227.75;;;12.76;51.44
73842;BME280;62184;52.006;5.924;2024-02-23T08:31:18;98217.78;;;12.78;51.61
73842;BME280;62184;52.006;5.924;2024-02-23T08:33:44;98212.69;;;12.86;51.61
73842;BME280;62184;52.006;5.924;2024-02-23T08:36:11;98207.66;;;12.81;50.84
73842;BME280;62184;52.006;5.924;2024-02-23T08:38:37;98207.28;;;12.75;50.15
73842;BME280;62184;52.006;5.924;2024-02-23T08:41:04;98209.53;;;12.92;52.21
73842;BME280;62184;52.006;5.924;2024-02-23T08:43:30;98196.88;;;12.94;50.20
73842;BME280;62184;52.006;5.924;2024-02-23T08:45:57;98201.50;;;12.92;51.47
73842;BME280;62184;52.006;5.924;2024-02-23T08:48:26;98188.97;;;12.92;50.54
73842;BME280;62184;52.006;5.924;2024-02-23T08:50:52;98187.88;;;12.95;50.28
73842;BME280;62184;52.006;5.924;2024-02-23T08:53:18;98193.97;;;13.08;52.07
73842;BME280;62184;52.006;5.924;2024-02-23T08:55:45;98176.00;;;13.32;52.89
73842;BME280;62184;52.006;5.924;2024-02-23T08:58:11;98177.75;;;13.45;50.19
73842;BME280;62184;52.006;5.924;2024-02-23T09:00:38;98179.19;;;13.49;50.55
73842;BME280;62184;52.006;5.924;2024-02-23T09:03:04;98181.88;;;13.49;49.53
73842;BME280;62184;52.006;5.924;2024-02-23T09:05:33;98171.75;;;13.41;50.10
73842;BME280;62184;52.006;5.924;2024-02-23T09:08:00;98170.69;;;13.43;50.71
73842;BME280;62184;52.006;5.924;2024-02-23T09:10:26;98178.94;;;13.40;49.99
73842;BME280;62184;52.006;5.924;2024-02-23T09:12:53;98178.72;;;13.43;50.21
73842;BME280;62184;52.006;5.924;2024-02-23T09:15:19;98178.09;;;13.40;50.57
73842;BME280;62184;52.006;5.924;2024-02-23T09:17:45;98170.41;;;13.35;49.79
73842;BME280;62184;52.006;5.924;2024-02-23T09:20:12;98171.06;;;13.39;49.03
73842;BME280;62184;52.006;5.924;2024-02-23T09:22:41;98175.28;;;13.30;50.05
73842;BME280;62184;52.006;5.924;2024-02-23T09:25:08;98175.56;;;13.38;49.49
73842;BME280;62184;52.006;5.924;2024-02-23T09:27:34;98173.72;;;13.50;51.26
73842;BME280;62184;52.006;5.924;2024-02-23T09:30:01;98180.19;;;13.48;50.99
73842;BME280;62184;52.006;5.924;2024-02-23T09:32:27;98183.97;;;13.45;49.33
73842;BME280;62184;52.006;5.924;2024-02-23T09:34:53;98182.63;;;13.51;50.82
73842;BME280;62184;52.006;5.924;2024-02-23T09:37:20;98178.25;;;13.38;49.41
73842;BME280;62184;52.006;5.924;2024-02-23T09:39:49;98169.66;;;13.22;49.08
73842;BME280;62184;52.006;5.924;2024-02-23T09:42:15;98172.19;;;13.24;49.58
73842;BME280;62184;52.006;5.924;2024-02-23T09:44:44;98171.84;;;13.28;50.29
73842;BME280;62184;52.006;5.924;2024-02-23T09:47:12;98176.00;;;13.32;49.87
73842;BME280;62184;52.006;5.924;2024-02-23T09:49:40;98188.69;;;13.30;48.32
73842;BME280;62184;52.006;5.924;2024-02-23T09:52:08;98183.56;;;13.27;49.27
73842;BME280;62184;52.006;5.924;2024-02-23T09:54:35;98190.00;;;13.36;50.40
73842;BME280;62184;52.006;5.924;2024-02-23T09:57:07;98202.13;;;13.41;50.65
73842;BME280;62184;52.006;5.924;2024-02-23T09:59:35;98189.22;;;13.47;49.86
73842;BME280;62184;52.006;5.924;2024-02-23T10:02:02;98195.63;;;13.22;48.28
73842;BME280;62184;52.006;5.924;2024-02-23T10:04:34;98198.41;;;13.31;49.20
73842;BME280;62184;52.006;5.924;2024-02-23T10:07:00;98205.66;;;13.42;50.53
73842;BME280;62184;52.006;5.924;2024-02-23T10:09:27;98205.56;;;13.55;50.15
73842;BME280;62184;52.006;5.924;2024-02-23T10:11:53;98209.56;;;13.60;50.42
73842;BME280;62184;52.006;5.924;2024-02-23T10:14:22;98212.88;;;13.64;49.92
73842;BME280;62184;52.006;5.924;2024-02-23T10:16:49;98211.38;;;13.60;49.75
73842;BME280;62184;52.006;5.924;2024-02-23T10:19:15;98213.59;;;13.55;49.71
73842;BME280;62184;52.006;5.924;2024-02-23T10:21:42;98222.25;;;13.58;49.85
73842;BME280;62184;52.006;5.924;2024-02-23T10:24:09;98226.84;;;13.56;50.14
73842;BME280;62184;52.006;5.924;2024-02-23T10:26:36;98241.19;;;13.33;48.71
73842;BME280;62184;52.006;5.924;2024-02-23T10:29:02;98249.94;;;13.24;50.48
73842;BME280;62184;52.006;5.924;2024-02-23T10:31:35;98239.22;;;13.13;50.46
73842;BME280;62184;52.006;5.924;2024-02-23T10:34:03;98247.34;;;13.11;51.37
73842;BME280;62184;52.006;5.924;2024-02-23T10:36:34;98247.34;;;13.11;50.83
73842;BME280;62184;52.006;5.924;2024-02-23T10:39:02;98258.94;;;13.12;51.05
73842;BME280;62184;52.006;5.924;2024-02-23T10:41:34;98259.41;;;13.05;52.41
73842;BME280;62184;52.006;5.924;2024-02-23T10:44:01;98258.66;;;13.03;51.75
73842;BME280;62184;52.006;5.924;2024-02-23T10:46:33;98262.19;;;13.04;52.32
73842;BME280;62184;52.006;5.924;2024-02-23T10:49:01;98267.09;;;13.10;52.98
73842;BME280;62184;52.006;5.924;2024-02-23T10:51:28;98264.19;;;13.24;54.16
73842;BME280;62184;52.006;5.924;2024-02-23T10:53:57;98273.63;;;13.30;52.76
73842;BME280;62184;52.006;5.924;2024-02-23T10:56:23;98266.72;;;13.38;52.95
73842;BME280;62184;52.006;5.924;2024-02-23T10:58:51;98263.19;;;13.49;53.27
73842;BME280;62184;52.006;5.924;2024-02-23T11:01:19;98270.38;;;13.49;51.70
73842;BME280;62184;52.006;5.924;2024-02-23T11:03:50;98261.13;;;13.53;52.07
73842;BME280;62184;52.006;5.924;2024-02-23T11:06:19;98275.75;;;13.60;52.74
73842;BME280;62184;52.006;5.924;2024-02-23T11:08:46;98264.66;;;13.53;50.96
73842;BME280;62184;52.006;5.924;2024-02-23T11:11:12;98267.50;;;13.28;50.07
73842;BME280;62184;52.006;5.924;2024-02-23T11:13:44;98256.66;;;13.29;49.73
73842;BME280;62184;52.006;5.924;2024-02-23T11:16:12;98274.94;;;13.35;51.62
73842;BME280;62184;52.006;5.924;2024-02-23T11:19:03;98263.19;;;13.49;50.09
73842;BME280;62184;52.006;5.924;2024-02-23T11:21:34;98279.16;;;13.51;51.56
73842;BME280;62184;52.006;5.924;2024-02-23T11:24:02;98272.09;;;13.61;51.48
73842;BME280;62184;52.006;5.924;2024-02-23T11:26:30;98276.88;;;13.68;51.75
73842;BME280;62184;52.006;5.924;2024-02-23T11:28:57;98282.97;;;13.70;50.40
73842;BME280;62184;52.006;5.924;2024-02-23T11:31:25;98271.03;;;13.63;50.50
73842;BME280;62184;52.006;5.924;2024-02-23T11:33:58;98277.94;;;13.66;51.50
73842;BME280;62184;52.006;5.924;2024-02-23T11:36:28;98281.25;;;13.69;51.53
73842;BME280;62184;52.006;5.924;2024-02-23T11:38:57;98279.06;;;13.63;50.69
73842;BME280;62184;52.006;5.924;2024-02-23T11:41:25;98282.88;;;13.72;50.73
73842;BME280;62184;52.006;5.924;2024-02-23T11:43:53;98262.84;;;13.76;50.50
73842;BME280;62184;52.006;5.924;2024-02-23T11:46:22;98278.34;;;13.84;51.96
73842;BME280;62184;52.006;5.924;2024-02-23T11:48:49;98282.75;;;13.96;52.08
73842;BME280;62184;52.006;5.924;2024-02-23T11:51:18;98279.34;;;14.05;51.02
73842;BME280;62184;52.006;5.924;2024-02-23T11:53:45;98280.78;;;14.09;51.36
73842;BME280;62184;52.006;5.924;2024-02-23T11:56:12;98269.44;;;14.16;49.51
73842;BME280;62184;52.006;5.924;2024-02-23T11:58:39;98276.00;;;14.24;49.46
73842;BME280;62184;52.006;5.924;2024-02-23T12:01:06;98288.97;;;14.30;50.34
73842;BME280;62184;52.006;5.924;2024-02-23T12:03:32;98284.28;;;14.32;50.45
73842;BME280;62184;52.006;5.924;2024-02-23T12:06:00;98278.91;;;14.32;51.03
73842;BME280;62184;52.006;5.924;2024-02-23T12:08:30;98283.94;;;14.25;49.47
73842;BME280;62184;52.006;5.924;2024-02-23T12:10:58;98297.88;;;14.30;51.04
73842;BME280;62184;52.006;5.924;2024-02-23T12:13:26;98305.78;;;14.54;51.47
73842;BME280;62184;52.006;5.924;2024-02-23T12:15:54;98306.00;;;14.40;50.10
73842;BME280;62184;52.006;5.924;2024-02-23T12:18:21;98299.94;;;14.27;49.79
73842;BME280;62184;52.006;5.924;2024-02-23T12:20:48;98300.31;;;14.22;50.59
73842;BME280;62184;52.006;5.924;2024-02-23T12:23:14;98303.63;;;14.14;49.62
73842;BME280;62184;52.006;5.924;2024-02-23T12:25:52;98305.69;;;14.11;50.08
73842;BME280;62184;52.006;5.924;2024-02-23T12:28:19;98308.38;;;14.11;50.93
73842;BME280;62184;52.006;5.924;2024-02-23T12:30:45;98309.34;;;14.10;49.64
73842;BME280;62184;52.006;5.924;2024-02-23T12:33:15;98310.91;;;14.24;50.43
73842;BME280;62184;52.006;5.924;2024-02-23T12:35:42;98309.59;;;14.29;50.69
73842;BME280;62184;52.006;5.924;2024-02-23T12:38:08;98314.56;;;14.34;50.95
73842;BME280;62184;52.006;5.924;2024-02-23T12:40:35;98311.63;;;14.48;52.23
73842;BME280;62184;52.006;5.924;2024-02-23T12:43:04;98310.41;;;14.52;51.46
73842;BME280;62184;52.006;5.924;2024-02-23T12:45:30;98311.63;;;14.48;50.28
73842;BME280;62184;52.006;5.924;2024-02-23T12:47:57;98318.47;;;14.41;48.49
73842;BME280;62184;52.006;5.924;2024-02-23T12:50:23;98319.31;;;14.52;50.63
73842;BME280;62184;52.006;5.924;2024-02-23T12:52:49;98314.78;;;14.53;49.89
73842;BME280;62184;52.006;5.924;2024-02-23T12:55:16;98309.56;;;14.63;49.39
73842;BME280;62184;52.006;5.924;2024-02-23T12:57:42;98319.69;;;14.59;48.71
73842;BME280;62184;52.006;5.924;2024-02-23T13:00:13;98326.66;;;14.73;50.24